Sao Paulo de Olivenca, Brazil
Current Conditions -  °F | °C
As of 12:30 PM on Friday 24 Oct 2014 (Local Time) from SKLT Reporting Station
Thunderstorm Thunderstorm  
Wind Chill: 75°   Ceiling: 900
Heat Index: 75°   Visibility: 0.31mi
Dew Point: 75°   Wind: 7mph
Humidity: 100%   Direction: 360°N
Pressure: 29.87"   Gusts: NA
Location:  3.38°S, 68.87°W
Report Text: SKLT 241630Z 36006KT 0500 +TSRA SCT005CB OVC009 24/24 A2987 RMKCB/N/NW AD BLW MNM MET
Loading
Personal Weather Stations






























Interactive Weather Map
Tropical Storm Tracking
New forecast layout! Learn more

10-Day Weather Forecast

Advertisements
Track Severe Weather on mobile